Woodland Hills, CA

4:44 AM PST on March 06, 2015 (GMT -0800)
Fallbrook Mall Area | Change Station
CLOSE
Current Station
Personal Weather Station
Location: Woodland Hills, CA
Elevation: 832 ft
Nearby Weather Stations
Active Advisory: Wind Advisory Active Notice: Record Report, Public Information Statement

Elev 832 ft 34.18 °N, 118.62 °W | Updated 9 seconds ago

Clear
Clear
54.3 °F
Feels Like 54.3 °F
N
0.0
Wind Variable Wind from North
Gusts 0.0 mph

Today
High -- | Low -- °F
--% Chance of Precip.
Yesterday
High -- | Low -- °F
Precip. -- in
6:17 AM 5:54 PM
Waxing Gibbous, 99% visible
Pressure 30.11 in
Visibility 10.0 miles
Clouds Clear
Dew Point 21 °F
Humidity 27%
Rainfall in
Snow Depth Not available.
UV 0 out of 12
Pollen 9.20 out of 12
Air Quality Not available.
Flu Activity Not available.
METAR KVNY 061151Z 36018G23KT 10SM CLR 17/M09 A3013 RMK AO2 SLP194 T01671089 10178 20161 56008

More Conditions Fewer Conditions

Pressure 30.11 in
Visibility 10.0 miles
Clouds Clear
Dew Point 21 °F
Humidity 27%
Rainfall in
Snow Depth Not available.
UV 0 out of 12
Pollen 9.20 out of 12
Air Quality Not available.
Flu Activity Not available.
METAR KVNY 061151Z 36018G23KT 10SM CLR 17/M09 A3013 RMK AO2 SLP194 T01671089 10178 20161 56008

More Conditions Fewer Conditions

10-Day Weather Forecast

Almanac

Astronomy

Mar. 06, 2015 Rise Set
Actual Time
Civil Twilight
Nautical Twilight
Astronomical Twilight
Moon
Length of Visible Light
Length of Day
Tomorrow will be .
, % of the Moon is Illuminated

Today's Extremes

State Highs State Lows

Community

WunderPhotos

Upload Photos

1,803,246 photos uploaded!

WunderBlogs® & News

Nearby

Air Quality

  Air Quality AQ Index Pollutant
Not available.

Snow Depth

Station Depth Elevation

Earthquake Activity

City Distance Mag. Time & Date
Minimum magnitude displayed is 2.5.

Coastal Water Temperatures

Place Temperature

Nearby Weather Stations

Wind Advisory
Statement as of 3:20 AM PST on March 06, 2015

... Wind Advisory in effect until 4 PM PST this afternoon...

The National Weather Service in Los Angeles/Oxnard has issued a
Wind Advisory for the San Fernando Valley. This advisory is in
effect until 4 PM PST this afternoon.

* Winds... areas of north to northeast 15 to 25 mph with gusts to
35 mph.

* Timing... strongest winds during the late morning and early
afternoon on Friday.

* Impacts... strong winds will make driving difficult for high
profile vehicles... including highways 101 and 118 and
interstates 5 and 405.

Precautionary/preparedness actions...

When driving... use extra caution. Be prepared for sudden gusty
cross winds.